Time;durP1;ratioP1;P1;durP2;ratioP2;P2;SDS_P1;SDS_P2;PMS_P1;PMS_P2;Temp;Humidity;BMP_temperature;BMP_pressure;BME280_temperature;BME280_humidity;BME280_pressure;Samples;Min_cycle;Max_cycle;Signal;HPM_P1;HPM_P2
2023/11/07 00:02:12;;;;;;;2.50;2.30;;;;;;;4.79;100.00;99338.13;5030798;28;20081;-65
2023/11/07 00:04:38;;;;;;;3.03;2.70;;;;;;;4.70;100.00;99323.28;5034370;28;20029;-64
2023/11/07 00:07:04;;;;;;;2.70;2.50;;;;;;;4.73;100.00;99329.03;5035140;28;20037;-62
2023/11/07 00:09:30;;;;;;;2.87;2.67;;;;;;;4.92;100.00;99339.34;5034721;28;20524;-64
2023/11/07 00:11:56;;;;;;;3.10;2.80;;;;;;;5.02;100.00;99349.75;5035278;28;20038;-62
2023/11/07 00:14:22;;;;;;;3.03;2.73;;;;;;;4.86;100.00;99328.56;5034721;28;20041;-62
2023/11/07 00:16:48;;;;;;;3.00;2.60;;;;;;;4.88;100.00;99329.22;5034712;28;20049;-64
2023/11/07 00:19:14;;;;;;;3.00;2.70;;;;;;;4.75;100.00;99303.34;5034749;28;20438;-62
2023/11/07 00:21:39;;;;;;;3.43;3.00;;;;;;;5.02;100.00;99344.47;5034699;28;20080;-62
2023/11/07 00:24:06;;;;;;;3.00;2.40;;;;;;;4.93;100.00;99330.44;5034634;28;20440;-65
2023/11/07 00:26:34;;;;;;;2.97;2.70;;;;;;;5.04;100.00;99353.03;5033471;28;20372;-62
2023/11/07 00:28:59;;;;;;;3.33;2.50;;;;;;;4.91;100.00;99350.00;5034525;28;20049;-63
2023/11/07 00:31:25;;;;;;;3.30;2.70;;;;;;;4.90;100.00;99361.56;5034715;28;20060;-63
2023/11/07 00:33:51;;;;;;;4.83;2.70;;;;;;;4.85;100.00;99353.31;5034682;28;20045;-63
2023/11/07 00:36:17;;;;;;;3.33;3.03;;;;;;;4.86;100.00;99357.59;5034496;28;20087;-62
2023/11/07 00:38:44;;;;;;;3.80;2.60;;;;;;;4.78;100.00;99352.28;5033324;28;20044;-61
2023/11/07 00:41:10;;;;;;;3.13;2.57;;;;;;;4.78;100.00;99360.22;5034355;28;20036;-62
2023/11/07 00:43:35;;;;;;;2.80;2.50;;;;;;;4.84;100.00;99381.50;5034240;28;20458;-63
2023/11/07 00:46:01;;;;;;;3.17;2.80;;;;;;;4.78;100.00;99370.75;5034254;28;20033;-62
2023/11/07 00:48:27;;;;;;;3.53;3.23;;;;;;;4.85;100.00;99374.41;5034214;28;20033;-62
2023/11/07 00:50:52;;;;;;;3.43;2.90;;;;;;;5.00;100.00;99378.09;5034101;28;20037;-63
2023/11/07 00:53:18;;;;;;;3.40;3.10;;;;;;;5.05;100.00;99377.59;5034237;28;20499;-64
2023/11/07 00:55:44;;;;;;;3.27;2.97;;;;;;;5.08;100.00;99386.03;5033922;28;20048;-62
2023/11/07 00:58:09;;;;;;;3.70;3.30;;;;;;;5.05;100.00;99382.88;5034156;28;20033;-64
2023/11/07 01:00:35;;;;;;;3.63;3.33;;;;;;;4.95;100.00;99364.56;5033861;28;20060;-62
2023/11/07 01:03:01;;;;;;;3.97;3.20;;;;;;;5.00;100.00;99372.81;5034257;28;20125;-63
2023/11/07 01:05:26;;;;;;;4.03;3.63;;;;;;;5.01;100.00;99389.47;5033986;28;20507;-62
2023/11/07 01:07:52;;;;;;;4.37;3.97;;;;;;;4.86;100.00;99368.97;5033905;28;20037;-63
2023/11/07 01:10:18;;;;;;;3.97;3.57;;;;;;;4.98;100.00;99396.72;5033913;28;20362;-63
2023/11/07 01:12:44;;;;;;;3.60;3.30;;;;;;;4.86;100.00;99383.97;5033870;28;20125;-63
2023/11/07 01:15:10;;;;;;;3.30;3.00;;;;;;;4.71;100.00;99364.47;5032904;28;20037;-62
2023/11/07 01:17:36;;;;;;;5.87;3.03;;;;;;;4.90;100.00;99393.22;5033536;28;20136;-62
2023/11/07 01:20:06;;;;;;;3.23;2.50;;;;;;;4.90;100.00;99403.75;5033750;28;20068;-62
2023/11/07 01:22:32;;;;;;;3.67;3.20;;;;;;;4.86;100.00;99402.44;5032905;28;20069;-64
2023/11/07 01:24:58;;;;;;;3.33;2.90;;;;;;;4.93;100.00;99400.84;5034630;28;20045;-63
2023/11/07 01:27:24;;;;;;;4.03;3.43;;;;;;;4.99;100.00;99410.75;5031825;28;20052;-62
2023/11/07 01:29:50;;;;;;;2.80;2.60;;;;;;;5.00;100.00;99399.19;5033118;28;20033;-63
2023/11/07 01:32:17;;;;;;;3.23;2.87;;;;;;;4.99;100.00;99397.56;5033626;28;20064;-62
2023/11/07 01:34:42;;;;;;;3.17;2.27;;;;;;;5.02;100.00;99399.03;5033706;28;20029;-62
2023/11/07 01:37:08;;;;;;;3.10;2.80;;;;;;;5.03;100.00;99420.00;5033630;28;20041;-61
2023/11/07 01:39:34;;;;;;;3.20;2.40;;;;;;;4.85;100.00;99400.78;5033394;28;20473;-62
2023/11/07 01:41:59;;;;;;;3.57;2.37;;;;;;;4.91;100.00;99415.97;5033681;28;20037;-60
2023/11/07 01:44:28;;;;;;;3.03;2.73;;;;;;;4.92;100.00;99412.38;5033435;28;20033;-63
2023/11/07 01:46:55;;;;;;;2.40;2.00;;;;;;;4.96;100.00;99418.97;5033400;28;20037;-65
2023/11/07 01:49:22;;;;;;;3.00;2.70;;;;;;;4.30;100.00;99306.28;5033159;28;20040;-64
2023/11/07 01:51:48;;;;;;;4.13;2.30;;;;;;;5.09;100.00;99424.63;5033402;28;20033;-63
2023/11/07 01:54:14;;;;;;;3.37;2.90;;;;;;;5.06;100.00;99435.50;5031866;28;20124;-63
2023/11/07 01:56:40;;;;;;;3.20;2.90;;;;;;;4.84;100.00;99396.50;5032887;28;20120;-64
2023/11/07 01:59:05;;;;;;;4.60;3.63;;;;;;;5.03;100.00;99435.81;5032888;28;20540;-62
2023/11/07 02:01:32;;;;;;;3.60;3.10;;;;;;;4.88;100.00;99411.84;5031458;28;20045;-62
2023/11/07 02:03:58;;;;;;;5.83;4.77;;;;;;;4.94;100.00;99416.50;5032617;28;20087;-63
2023/11/07 02:06:24;;;;;;;6.20;3.37;;;;;;;5.05;100.00;99431.22;5032862;28;20030;-62
2023/11/07 02:08:50;;;;;;;3.57;3.23;;;;;;;5.05;100.00;99425.94;5032703;28;20071;-62
2023/11/07 02:11:15;;;;;;;5.13;3.60;;;;;;;4.93;100.00;99409.56;5032309;28;20030;-62
2023/11/07 02:13:47;;;;;;;4.00;3.10;;;;;;;5.11;100.00;99427.94;5032189;28;20095;-64
2023/11/07 02:16:13;;;;;;;3.90;3.07;;;;;;;5.12;100.00;99432.22;5032748;28;20084;-62
2023/11/07 02:18:39;;;;;;;4.23;3.60;;;;;;;5.21;100.00;99452.38;5032698;28;20049;-62
2023/11/07 02:21:05;;;;;;;3.80;3.40;;;;;;;5.25;100.00;99453.72;5032715;28;20040;-62
2023/11/07 02:23:34;;;;;;;4.40;3.40;;;;;;;5.26;100.00;99462.47;5032610;28;20060;-62
2023/11/07 02:26:00;;;;;;;5.17;4.50;;;;;;;5.24;100.00;99451.25;5031074;28;20508;-62
2023/11/07 02:28:25;;;;;;;4.03;3.30;;;;;;;5.27;100.00;99470.22;5032462;28;20073;-63
2023/11/07 02:30:51;;;;;;;4.90;3.80;;;;;;;5.13;100.00;99444.41;5032303;28;20397;-63
2023/11/07 02:33:19;;;;;;;3.07;2.67;;;;;;;5.15;100.00;99447.72;5032399;28;20026;-64
2023/11/07 02:35:45;;;;;;;4.07;3.63;;;;;;;5.07;100.00;99436.31;5032440;28;20485;-64
2023/11/07 02:38:12;;;;;;;3.17;2.87;;;;;;;4.89;100.00;99417.94;5032120;28;20042;-64
2023/11/07 02:40:38;;;;;;;4.87;3.77;;;;;;;5.07;100.00;99454.78;5032282;28;20048;-63
2023/11/07 02:43:06;;;;;;;4.37;3.50;;;;;;;5.08;100.00;99457.28;5031288;28;20044;-63
2023/11/07 02:45:36;;;;;;;4.78;3.33;;;;;;;5.09;100.00;99466.84;5032368;28;20033;-65
2023/11/07 02:48:03;;;;;;;6.00;3.77;;;;;;;5.26;100.00;99480.94;5032138;28;20053;-63
2023/11/07 02:50:31;;;;;;;4.20;3.28;;;;;;;5.28;100.00;99485.06;5032159;28;20045;-61
2023/11/07 02:52:57;;;;;;;3.73;3.03;;;;;;;5.28;100.00;99487.72;5032594;28;20033;-63
2023/11/07 02:55:22;;;;;;;5.07;3.83;;;;;;;5.29;100.00;99483.25;5033690;28;20124;-62
2023/11/07 02:57:48;;;;;;;5.03;4.03;;;;;;;5.07;100.00;99439.78;5033858;28;20071;-62
2023/11/07 03:00:14;;;;;;;4.47;3.70;;;;;;;5.06;100.00;99429.41;5033633;28;20038;-63
2023/11/07 03:02:40;;;;;;;6.97;5.73;;;;;;;5.17;100.00;99460.75;5032976;28;20037;-62
2023/11/07 03:05:07;;;;;;;5.63;4.10;;;;;;;5.29;100.00;99484.09;5031420;28;20496;-67
2023/11/07 03:07:33;;;;;;;5.47;3.17;;;;;;;5.15;100.00;99453.00;5032717;28;20030;-64
2023/11/07 03:10:00;;;;;;;4.00;3.43;;;;;;;5.38;100.00;99486.75;5032153;28;20603;-64
2023/11/07 03:12:29;;;;;;;4.23;3.30;;;;;;;5.46;100.00;99492.03;5032138;28;20496;-62
2023/11/07 03:14:56;;;;;;;4.27;3.77;;;;;;;5.48;100.00;99497.97;5032167;28;20044;-64
2023/11/07 03:17:25;;;;;;;4.17;3.30;;;;;;;5.34;100.00;99480.13;5032337;28;20033;-63
2023/11/07 03:19:54;;;;;;;4.57;3.20;;;;;;;5.35;100.00;99492.34;5032079;28;20056;-62
2023/11/07 03:22:20;;;;;;;;;;;;;;;5.44;100.00;99509.84;5031800;28;20040;-63
2023/11/07 03:24:49;;;;;;;3.10;2.80;;;;;;;5.31;100.00;99496.28;5030189;28;20343;-63
2023/11/07 03:27:14;;;;;;;;;;;;;;;5.45;100.00;99514.16;5031972;28;20048;-63
2023/11/07 03:29:40;;;;;;;5.03;3.43;;;;;;;5.33;100.00;99500.44;5031153;28;19917;-62
2023/11/07 03:32:06;;;;;;;6.43;4.03;;;;;;;5.35;100.00;99502.91;5030151;28;20041;-63
2023/11/07 03:34:32;;;;;;;4.50;4.10;;;;;;;5.44;100.00;99507.22;5031526;28;20471;-62
2023/11/07 03:36:57;;;;;;;4.30;3.83;;;;;;;5.28;100.00;99471.88;5031354;28;20556;-60
2023/11/07 03:39:23;;;;;;;5.97;4.00;;;;;;;5.47;100.00;99498.97;5034247;28;20049;-64
2023/11/07 03:41:49;;;;;;;4.20;3.70;;;;;;;5.45;100.00;99495.66;5035796;28;20128;-62
2023/11/07 03:44:14;;;;;;;5.67;4.27;;;;;;;5.27;100.00;99483.41;5035492;28;20041;-64
2023/11/07 03:46:41;;;;;;;6.40;4.73;;;;;;;5.36;100.00;99494.81;5035299;28;20150;-62
2023/11/07 03:49:07;;;;;;;5.93;4.93;;;;;;;5.32;100.00;99493.50;5035437;28;20510;-63
2023/11/07 03:51:32;;;;;;;5.43;4.00;;;;;;;5.27;100.00;99493.16;5035222;28;20037;-66
2023/11/07 03:53:58;;;;;;;5.60;5.00;;;;;;;5.28;100.00;99493.00;5035571;28;20037;-64
2023/11/07 03:56:24;;;;;;;6.47;4.73;;;;;;;5.33;100.00;99489.88;5034365;28;20132;-64
2023/11/07 03:58:50;;;;;;;8.23;6.70;;;;;;;5.41;100.00;99518.94;5033963;28;20059;-62
2023/11/07 04:01:15;;;;;;;8.03;5.97;;;;;;;5.42;100.00;99514.47;5034906;28;20056;-65
2023/11/07 04:03:41;;;;;;;11.37;7.40;;;;;;;5.42;100.00;99519.75;5035122;28;20060;-61
2023/11/07 04:06:07;;;;;;;10.20;7.43;;;;;;;5.23;100.00;99489.19;5034837;28;20061;-64
2023/11/07 04:08:34;;;;;;;12.40;8.07;;;;;;;5.42;100.00;99519.75;5035215;28;20041;-63
2023/11/07 04:11:00;;;;;;;13.37;9.17;;;;;;;5.38;100.00;99515.78;5034167;28;20041;-61
2023/11/07 04:13:27;;;;;;;12.50;9.07;;;;;;;5.36;100.00;99521.22;5035644;28;20136;-62
2023/11/07 04:15:56;;;;;;;9.97;7.30;;;;;;;5.42;100.00;99525.03;5035319;28;20044;-61
2023/11/07 04:18:23;;;;;;;10.70;7.93;;;;;;;5.31;100.00;99517.41;5035363;28;20147;-61
2023/11/07 04:20:52;;;;;;;10.03;7.43;;;;;;;5.24;100.00;99523.34;5035081;28;20052;-64
2023/11/07 04:23:18;;;;;;;;;;;;;;;5.29;100.00;99533.41;5035336;28;20061;-62
2023/11/07 04:25:44;;;;;;;8.47;5.60;;;;;;;5.11;100.00;99528.22;5034709;28;19932;-62
2023/11/07 04:28:12;;;;;;;6.87;5.33;;;;;;;5.16;100.00;99544.41;5034140;28;20044;-61
2023/11/07 04:31:27;;;;;;;8.55;6.18;;;;;;;5.15;100.00;99536.63;5035490;28;20041;-66
2023/11/07 04:33:52;;;;;;;6.70;5.77;;;;;;;5.15;100.00;99550.66;5034418;28;20030;-63
2023/11/07 04:36:22;;;;;;;6.67;5.23;;;;;;;4.98;100.00;99527.81;5034583;28;20052;-66
2023/11/07 04:38:49;;;;;;;6.37;4.90;;;;;;;4.94;100.00;99539.69;5033012;28;20037;-62
2023/11/07 04:41:15;;;;;;;4.87;4.23;;;;;;;5.07;100.00;99558.53;5034521;28;20030;-64
2023/11/07 04:43:43;;;;;;;5.07;4.43;;;;;;;5.15;100.00;99561.22;5034348;28;20084;-72
2023/11/07 04:46:10;;;;;;;4.37;3.80;;;;;;;5.12;100.00;99558.88;5034353;28;20032;-64
2023/11/07 04:48:38;;;;;;;4.53;4.10;;;;;;;5.13;100.00;99557.91;5033976;28;20034;-64
2023/11/07 04:51:04;;;;;;;5.22;4.00;;;;;;;4.79;100.00;99501.66;5032540;28;20124;-66
2023/11/07 04:53:30;;;;;;;3.83;3.40;;;;;;;5.02;100.00;99554.72;5034200;28;20057;-67
2023/11/07 04:55:56;;;;;;;7.30;4.20;;;;;;;5.05;100.00;99562.31;5032671;28;20041;-64
2023/11/07 04:58:23;;;;;;;6.27;4.90;;;;;;;4.93;100.00;99553.84;5034043;28;20033;-65
2023/11/07 05:00:49;;;;;;;5.60;4.67;;;;;;;4.94;100.00;99556.34;5032085;28;20036;-64
2023/11/07 05:03:15;;;;;;;5.53;4.93;;;;;;;4.97;100.00;99560.47;5036429;28;20037;-67
2023/11/07 05:05:42;;;;;;;6.70;5.43;;;;;;;4.77;100.00;99525.56;5039351;28;20108;-71
2023/11/07 05:08:07;;;;;;;7.43;5.43;;;;;;;4.97;100.00;99552.56;5030787;28;20072;-65
2023/11/07 05:10:34;;;;;;;5.67;4.67;;;;;;;5.10;100.00;99579.34;5032243;28;20041;-65
2023/11/07 05:13:00;;;;;;;7.30;5.67;;;;;;;5.08;100.00;99570.75;5032156;28;20061;-64
2023/11/07 05:15:25;;;;;;;7.77;6.20;;;;;;;5.05;100.00;99571.06;5031829;28;20413;-64
2023/11/07 05:17:51;;;;;;;7.77;6.60;;;;;;;5.05;100.00;99571.06;5032400;28;20053;-65
2023/11/07 05:20:18;;;;;;;11.07;7.03;;;;;;;4.78;100.00;99529.00;5033110;28;20134;-66
2023/11/07 05:22:43;;;;;;;8.10;6.47;;;;;;;5.02;100.00;99555.53;5033964;28;20135;-67
2023/11/07 05:25:10;;;;;;;8.03;6.53;;;;;;;5.08;100.00;99581.31;5033740;28;20446;-67
2023/11/07 05:27:35;;;;;;;8.17;6.47;;;;;;;5.14;100.00;99583.31;5033931;28;20041;-64
2023/11/07 05:30:01;;;;;;;8.20;6.10;;;;;;;5.15;100.00;99592.88;5033782;28;20437;-65
2023/11/07 05:32:27;;;;;;;7.07;5.87;;;;;;;5.18;100.00;99594.38;5034295;28;20053;-66
2023/11/07 05:34:52;;;;;;;9.13;6.00;;;;;;;5.22;100.00;99593.94;5034523;28;20077;-67
2023/11/07 05:37:18;;;;;;;7.70;6.17;;;;;;;5.17;100.00;99590.09;5035102;28;20040;-70
2023/11/07 05:39:44;;;;;;;9.90;7.10;;;;;;;5.25;100.00;99598.06;5035507;28;20033;-65
2023/11/07 05:42:10;;;;;;;7.33;6.27;;;;;;;5.20;100.00;99605.59;5034639;28;20055;-65
2023/11/07 05:44:36;;;;;;;10.20;7.90;;;;;;;5.19;100.00;99602.13;5035299;28;20473;-65
2023/11/07 05:47:03;;;;;;;10.03;7.27;;;;;;;5.19;100.00;99599.50;5034586;28;20040;-65
2023/11/07 05:49:28;;;;;;;10.33;7.67;;;;;;;5.24;100.00;99602.53;5034747;28;20069;-70
2023/11/07 05:51:54;;;;;;;9.20;7.17;;;;;;;5.13;100.00;99581.66;5033067;28;20075;-66
2023/11/07 05:54:20;;;;;;;12.33;8.87;;;;;;;5.05;100.00;99572.88;5033784;28;20098;-65
2023/11/07 05:56:46;;;;;;;13.57;9.23;;;;;;;5.12;100.00;99582.66;5031964;28;20034;-69
2023/11/07 05:59:11;;;;;;;15.23;8.50;;;;;;;5.16;100.00;99599.00;5033278;28;20635;-66
2023/11/07 06:01:37;;;;;;;17.20;9.90;;;;;;;5.17;100.00;99590.09;5032420;28;20135;-65
2023/11/07 06:04:04;;;;;;;16.87;10.00;;;;;;;5.20;100.00;99590.63;5032409;28;20029;-64
2023/11/07 06:06:29;;;;;;;18.37;10.97;;;;;;;5.25;100.00;99600.72;5031341;28;20042;-64
2023/11/07 06:08:55;;;;;;;19.13;10.07;;;;;;;5.33;100.00;99603.38;5032164;28;20053;-64
2023/11/07 06:11:21;;;;;;;16.87;11.20;;;;;;;5.39;100.00;99609.84;5030994;28;20029;-65
2023/11/07 06:13:46;;;;;;;18.67;10.23;;;;;;;5.35;100.00;99597.94;5032285;28;20076;-65
2023/11/07 06:16:12;;;;;;;20.67;12.53;;;;;;;5.45;100.00;99615.31;5032420;28;20040;-66
2023/11/07 06:18:39;;;;;;;17.97;11.43;;;;;;;5.38;100.00;99621.38;5032128;28;20037;-64
2023/11/07 06:21:05;;;;;;;18.63;10.43;;;;;;;5.45;100.00;99619.78;5032216;28;20025;-65
2023/11/07 06:23:31;;;;;;;18.33;10.87;;;;;;;5.37;100.00;99611.81;5031794;28;20045;-64
2023/11/07 06:25:57;;;;;;;21.60;11.87;;;;;;;5.47;100.00;99617.81;5032238;28;20071;-64
2023/11/07 06:28:22;;;;;;;19.10;11.67;;;;;;;5.39;100.00;99607.19;5032090;28;20512;-67
2023/11/07 06:30:48;;;;;;;20.37;11.37;;;;;;;5.54;100.00;99627.59;5032003;28;20425;-65
2023/11/07 06:33:14;;;;;;;19.83;12.17;;;;;;;5.60;100.00;99623.50;5031769;28;20033;-66
2023/11/07 06:35:42;;;;;;;24.80;12.27;;;;;;;5.46;100.00;99606.41;5031838;28;20404;-64
2023/11/07 06:38:08;;;;;;;18.00;11.10;;;;;;;5.48;100.00;99615.00;5031779;28;20037;-65
2023/11/07 06:40:34;;;;;;;20.83;12.17;;;;;;;5.57;100.00;99615.88;5031905;28;20046;-68
2023/11/07 06:43:00;;;;;;;25.33;12.50;;;;;;;5.66;100.00;99628.13;5031796;28;20063;-65
2023/11/07 06:45:25;;;;;;;23.57;13.83;;;;;;;5.62;100.00;99621.50;5031855;28;20041;-67
2023/11/07 06:47:51;;;;;;;23.77;12.87;;;;;;;4.90;100.00;99509.28;5031617;28;20083;-65
2023/11/07 06:50:17;;;;;;;23.67;12.77;;;;;;;5.68;100.00;99642.00;5030249;28;20041;-65
2023/11/07 06:52:48;;;;;;;26.13;12.33;;;;;;;5.72;100.00;99632.78;5031392;28;20474;-67
2023/11/07 06:55:15;;;;;;;21.10;11.87;;;;;;;5.74;100.00;99635.25;5031213;28;20071;-65
2023/11/07 06:57:42;;;;;;;22.93;11.57;;;;;;;5.73;100.00;99623.03;5031703;28;20039;-66
2023/11/07 07:00:09;;;;;;;24.73;12.07;;;;;;;5.85;100.00;99643.75;5031761;28;20033;-65
2023/11/07 07:02:36;;;;;;;27.52;13.85;;;;;;;5.90;100.00;99638.84;5031313;28;20069;-66
2023/11/07 07:05:03;;;;;;;24.60;12.20;;;;;;;5.83;100.00;99623.75;5031488;28;20117;-66
2023/11/07 07:07:31;;;;;;;20.45;11.75;;;;;;;5.79;100.00;99617.13;5031072;28;20031;-65
2023/11/07 07:09:58;;;;;;;23.47;14.27;;;;;;;5.89;100.00;99629.25;5031407;28;20045;-64
2023/11/07 07:12:24;;;;;;;23.40;12.33;;;;;;;6.04;100.00;99644.47;5031125;28;20045;-66
2023/11/07 07:14:50;;;;;;;27.43;12.83;;;;;;;6.12;100.00;99657.75;5031175;28;20037;-66
2023/11/07 07:17:19;;;;;;;25.73;11.60;;;;;;;6.08;100.00;99632.63;5031248;28;20066;-65
2023/11/07 07:19:45;;;;;;;25.60;13.60;;;;;;;6.19;100.00;99651.63;5031098;28;20892;-69
2023/11/07 07:22:12;;;;;;;25.70;12.47;;;;;;;6.24;100.00;99653.78;5031436;28;20485;-67
2023/11/07 07:24:39;;;;;;;27.83;12.23;;;;;;;6.24;100.00;99653.78;5030864;28;20424;-65
2023/11/07 07:27:08;;;;;;;26.17;11.57;;;;;;;6.20;100.00;99641.88;5031182;28;20534;-64
2023/11/07 07:29:36;;;;;;;33.27;12.73;;;;;;;6.20;100.00;99652.47;5031132;28;20041;-68
2023/11/07 07:32:03;;;;;;;25.87;11.57;;;;;;;6.21;100.00;99649.66;5030956;28;20041;-68
2023/11/07 07:34:29;;;;;;;25.93;12.23;;;;;;;6.21;100.00;99654.94;5030805;28;20040;-67
2023/11/07 07:36:55;;;;;;;22.50;11.07;;;;;;;6.29;100.00;99653.31;5031273;28;20401;-65
2023/11/07 07:39:29;;;;;;;29.70;12.90;;;;;;;6.24;100.00;99648.50;5031393;28;20178;-70
2023/11/07 07:41:56;;;;;;;21.80;11.10;;;;;;;6.36;100.00;99662.22;5030855;28;20407;-65
2023/11/07 07:44:25;;;;;;;29.33;11.63;;;;;;;6.22;100.00;99639.91;5031037;28;20647;-65
2023/11/07 07:46:54;;;;;;;27.02;11.40;;;;;;;6.08;100.00;99614.13;5030897;28;20448;-65
2023/11/07 07:49:23;;;;;;;29.17;11.93;;;;;;;6.42;100.00;99673.03;5031137;28;20382;-66
2023/11/07 07:52:01;;;;;;;25.80;11.20;;;;;;;6.42;100.00;99664.25;5031224;28;20509;-65
2023/11/07 07:54:29;;;;;;;21.05;11.35;;;;;;;6.45;100.00;99675.34;5031213;28;20037;-65
2023/11/07 07:56:56;;;;;;;20.48;10.45;;;;;;;6.50;100.00;99674.84;5030799;28;20041;-65
2023/11/07 07:59:25;;;;;;;23.03;12.23;;;;;;;6.52;100.00;99681.63;5030834;28;20567;-65
2023/11/07 08:01:57;;;;;;;21.50;11.30;;;;;;;6.44;100.00;99668.38;5030772;28;20029;-68
2023/11/07 08:04:23;;;;;;;20.20;11.57;;;;;;;6.48;100.00;99688.22;5030872;28;20120;-65
2023/11/07 08:06:49;;;;;;;21.27;11.60;;;;;;;6.39;100.00;99672.53;5030956;28;20416;-66
2023/11/07 08:09:18;;;;;;;23.03;11.50;;;;;;;6.32;100.00;99666.19;5030970;28;20041;-65
2023/11/07 08:11:48;;;;;;;;;;;;;;;6.60;100.00;99690.56;5031334;28;20100;-64
2023/11/07 08:14:14;;;;;;;20.33;11.53;;;;;;;6.55;100.00;99682.28;5030512;28;19924;-66
2023/11/07 08:16:41;;;;;;;17.17;10.47;;;;;;;6.47;100.00;99668.06;5031261;28;20041;-64
2023/11/07 08:19:10;;;;;;;21.60;10.70;;;;;;;6.58;100.00;99679.31;5030715;28;20068;-65
2023/11/07 08:21:37;;;;;;;16.97;11.00;;;;;;;6.65;100.00;99688.25;5031247;28;20033;-67
2023/11/07 08:24:05;;;;;;;35.57;12.77;;;;;;;6.67;100.00;99688.94;5031397;28;20053;-66
2023/11/07 08:26:33;;;;;;;20.65;10.98;;;;;;;6.74;100.00;99700.50;5034215;28;20048;-68
2023/11/07 08:29:02;;;;;;;15.13;8.48;;;;;;;6.65;100.00;99667.06;5034489;28;20041;-66
2023/11/07 08:31:28;;;;;;;17.13;9.60;;;;;;;6.68;100.00;99678.19;5034455;28;20026;-66
2023/11/07 08:33:54;;;;;;;14.27;8.20;;;;;;;6.48;100.00;99648.56;5034490;28;20095;-65
2023/11/07 08:36:21;;;;;;;17.17;8.87;;;;;;;6.78;100.00;99693.91;5034073;28;20040;-66
2023/11/07 08:38:46;;;;;;;14.47;9.87;;;;;;;6.76;100.00;99694.06;5034267;28;20033;-66
2023/11/07 08:41:12;;;;;;;16.63;8.77;;;;;;;6.82;100.00;99703.16;5033137;28;20033;-65
2023/11/07 08:43:38;;;;;;;15.33;8.63;;;;;;;6.66;100.00;99671.41;5034131;28;20040;-66
2023/11/07 08:46:05;;;;;;;17.30;10.67;;;;;;;6.66;100.00;99666.13;5034092;28;20515;-65
2023/11/07 08:48:31;;;;;;;16.63;10.47;;;;;;;6.97;100.00;99709.47;5033866;28;20064;-65
2023/11/07 08:50:56;;;;;;;21.90;11.63;;;;;;;7.00;100.00;99709.13;5033834;28;20556;-63
2023/11/07 08:53:22;;;;;;;20.73;13.70;;;;;;;6.70;100.00;99655.03;5033744;28;20037;-65
2023/11/07 08:55:50;;;;;;;24.80;12.57;;;;;;;7.08;100.00;99708.31;5033945;28;20056;-66
2023/11/07 08:58:16;;;;;;;23.43;11.50;;;;;;;7.12;100.00;99714.91;5034140;28;20044;-64
2023/11/07 09:00:44;;;;;;;15.07;11.37;;;;;;;7.09;100.00;99704.66;5034176;28;20051;-65
2023/11/07 09:03:09;;;;;;;19.77;12.00;;;;;;;7.07;100.00;99704.81;5035033;28;20033;-70
2023/11/07 09:05:35;;;;;;;21.33;12.27;;;;;;;7.09;100.00;99707.31;5032794;28;20030;-63
2023/11/07 09:08:04;;;;;;;18.10;11.50;;;;;;;7.05;100.00;99705.97;5032739;28;20036;-66
2023/11/07 09:10:31;;;;;;;22.03;11.60;;;;;;;7.06;100.00;99703.16;5032150;28;20041;-66
2023/11/07 09:12:57;;;;;;;22.07;12.07;;;;;;;7.04;100.00;99699.88;5033736;28;20495;-67
2023/11/07 09:15:25;;;;;;;15.23;10.80;;;;;;;7.05;100.00;99703.34;5033773;28;20025;-67
2023/11/07 09:17:51;;;;;;;16.15;9.90;;;;;;;7.07;100.00;99718.06;5033500;28;20030;-68
2023/11/07 09:20:18;;;;;;;18.23;9.80;;;;;;;7.04;100.00;99713.09;5033696;28;20049;-65
2023/11/07 09:22:46;;;;;;;16.63;10.93;;;;;;;7.07;100.00;99720.72;5033195;28;20117;-66
2023/11/07 09:25:11;;;;;;;21.13;12.40;;;;;;;6.94;100.00;99698.34;5033682;28;20515;-67
2023/11/07 09:27:38;;;;;;;13.73;9.83;;;;;;;7.06;100.00;99697.88;5033593;28;20116;-68
2023/11/07 09:30:09;;;;;;;17.37;10.40;;;;;;;7.22;100.00;99717.38;5033173;28;20048;-67
2023/11/07 09:32:36;;;;;;;16.53;11.20;;;;;;;7.28;100.00;99722.03;5033385;28;20117;-66
2023/11/07 09:35:07;;;;;;;13.57;9.55;;;;;;;7.19;100.00;99705.31;5033046;28;20060;-67
2023/11/07 09:37:39;;;;;;;18.23;11.40;;;;;;;7.17;100.00;99701.16;5032050;28;20132;-66
2023/11/07 09:40:17;;;;;;;14.63;10.73;;;;;;;7.17;100.00;99706.47;5032874;28;20558;-65
2023/11/07 09:42:46;;;;;;;17.33;11.43;;;;;;;7.30;100.00;99733.28;5033212;28;20044;-67
2023/11/07 09:45:14;;;;;;;15.60;10.82;;;;;;;7.24;100.00;99718.91;5032886;28;20029;-67
2023/11/07 09:47:45;;;;;;;15.88;10.50;;;;;;;7.28;100.00;99729.97;5032926;28;20049;-66
2023/11/07 09:50:12;;;;;;;18.57;12.37;;;;;;;7.14;100.00;99711.09;5032744;28;20440;-66
2023/11/07 09:52:38;;;;;;;17.27;10.47;;;;;;;7.15;100.00;99714.56;5033211;28;20029;-67
2023/11/07 09:55:08;;;;;;;19.47;11.60;;;;;;;7.33;100.00;99733.78;5032702;28;20038;-68
2023/11/07 09:57:42;;;;;;;19.90;11.53;;;;;;;7.17;100.00;99719.72;5032821;28;20045;-68
2023/11/07 10:00:13;;;;;;;16.67;10.13;;;;;;;7.20;100.00;99719.38;5031207;28;20057;-65
2023/11/07 10:02:40;;;;;;;20.53;12.33;;;;;;;7.31;100.00;99737.59;5031875;28;20604;-66
2023/11/07 10:05:07;;;;;;;21.47;11.27;;;;;;;7.25;100.00;99744.38;5032782;28;20033;-66
2023/11/07 10:07:33;;;;;;;21.33;15.20;;;;;;;7.28;100.00;99737.94;5031580;28;20037;-65
2023/11/07 10:10:05;;;;;;;22.77;14.73;;;;;;;7.30;100.00;99747.34;5031388;28;20052;-66
2023/11/07 10:12:34;;;;;;;19.00;11.73;;;;;;;7.36;100.00;99749.34;5031451;28;20111;-65
2023/11/07 10:15:16;;;;;;;15.10;10.80;;;;;;;7.37;100.00;99744.88;5031590;28;20041;-70
2023/11/07 10:18:06;;;;;;;21.77;11.60;;;;;;;7.43;100.00;99752.13;5030185;28;20106;-66
2023/11/07 10:20:34;;;;;;;19.27;10.97;;;;;;;7.32;100.00;99741.91;5031155;28;20033;-66
2023/11/07 10:23:00;;;;;;;20.93;12.57;;;;;;;7.37;100.00;99745.69;5031159;28;20417;-66
2023/11/07 10:25:35;;;;;;;19.63;13.23;;;;;;;7.30;100.00;99730.66;5032199;28;20049;-66
2023/11/07 10:28:06;;;;;;;19.47;11.37;;;;;;;7.25;100.00;99728.50;5032582;28;20088;-66
2023/11/07 10:30:46;;;;;;;18.83;10.20;;;;;;;7.44;100.00;99743.19;5032225;28;20412;-66
2023/11/07 10:33:28;;;;;;;13.00;9.47;;;;;;;7.51;100.00;99754.78;5032619;28;20037;-66
2023/11/07 10:35:56;;;;;;;17.17;10.10;;;;;;;7.45;100.00;99739.56;5032953;28;20044;-65
2023/11/07 10:38:22;;;;;;;20.47;11.93;;;;;;;7.57;100.00;99771.84;5032277;28;20116;-66
2023/11/07 10:40:49;;;;;;;21.80;11.63;;;;;;;7.47;100.00;99745.50;5031097;28;20030;-67
2023/11/07 10:43:37;;;;;;;20.23;11.53;;;;;;;7.39;100.00;99735.75;5014652;28;20033;-66
2023/11/07 10:46:08;;;;;;;20.40;13.23;;;;;;;7.37;100.00;99737.75;5031868;28;20033;-65
2023/11/07 10:48:39;;;;;;;23.43;13.77;;;;;;;7.60;100.00;99774.97;5032155;28;20052;-65
2023/11/07 10:51:08;;;;;;;21.97;12.83;;;;;;;7.58;100.00;99771.69;5031930;28;20037;-64
2023/11/07 10:53:34;;;;;;;;;;;;;;;7.64;100.00;99775.47;5031952;28;20056;-66
2023/11/07 10:56:03;;;;;;;24.27;13.83;;;;;;;7.24;100.00;99724.19;5031652;28;20291;-66
2023/11/07 10:58:33;;;;;;;21.90;13.70;;;;;;;7.42;100.00;99761.09;5031654;28;20124;-65
2023/11/07 11:01:03;;;;;;;22.93;14.67;;;;;;;7.59;100.00;99783.94;5029947;28;20038;-65
2023/11/07 11:03:30;;;;;;;26.43;13.77;;;;;;;7.58;100.00;99782.28;5012824;28;20079;-67
2023/11/07 11:05:59;;;;;;;26.60;15.30;;;;;;;7.62;100.00;99786.25;5009909;28;20030;-65
2023/11/07 11:08:25;;;;;;;25.17;14.17;;;;;;;7.67;100.00;99794.50;5030466;28;20045;-67
2023/11/07 11:10:55;;;;;;;25.83;15.57;;;;;;;7.60;100.00;99777.63;5032384;28;20089;-65
2023/11/07 11:13:24;;;;;;;25.23;14.27;;;;;;;7.73;100.00;99793.84;5032006;28;20522;-65
2023/11/07 11:15:53;;;;;;;25.80;16.90;;;;;;;7.80;100.00;99790.50;5035035;28;20048;-66
2023/11/07 11:18:36;;;;;;;20.47;13.50;;;;;;;7.80;100.00;99795.81;5032679;28;20131;-68
2023/11/07 11:21:20;;;;;;;21.70;13.70;;;;;;;7.54;100.00;99758.94;5033000;28;20037;-62
2023/11/07 11:24:15;;;;;;;22.37;13.03;;;;;;;7.70;100.00;99785.41;5034891;28;20057;-64
2023/11/07 11:26:54;;;;;;;24.03;12.73;;;;;;;7.49;100.00;99756.75;5034056;28;20037;-65
2023/11/07 11:29:29;;;;;;;21.15;12.82;;;;;;;7.73;100.00;99804.44;5034588;28;20493;-62